sensor_id;sensor_type;location;lat;lon;timestamp;P1;durP1;ratioP1;P2;durP2;ratioP2
37131;SDS011;23035;50.032;21.978;2023-08-06T00:02:09;32.10;;;15.88;;
37131;SDS011;23035;50.032;21.978;2023-08-06T00:07:13;26.60;;;16.27;;
37131;SDS011;23035;50.032;21.978;2023-08-06T00:12:18;28.83;;;16.10;;
37131;SDS011;23035;50.032;21.978;2023-08-06T00:17:22;22.20;;;14.15;;
37131;SDS011;23035;50.032;21.978;2023-08-06T00:22:26;26.42;;;13.68;;
37131;SDS011;23035;50.032;21.978;2023-08-06T00:27:31;27.65;;;15.40;;
37131;SDS011;23035;50.032;21.978;2023-08-06T00:32:35;21.58;;;13.52;;
37131;SDS011;23035;50.032;21.978;2023-08-06T00:37:39;23.85;;;14.02;;
37131;SDS011;23035;50.032;21.978;2023-08-06T00:42:45;32.93;;;13.47;;
37131;SDS011;23035;50.032;21.978;2023-08-06T00:47:49;19.13;;;12.10;;
37131;SDS011;23035;50.032;21.978;2023-08-06T00:52:53;24.42;;;15.07;;
37131;SDS011;23035;50.032;21.978;2023-08-06T00:57:58;28.80;;;15.07;;
37131;SDS011;23035;50.032;21.978;2023-08-06T01:03:03;25.38;;;14.32;;
37131;SDS011;23035;50.032;21.978;2023-08-06T01:08:11;25.17;;;15.13;;
37131;SDS011;23035;50.032;21.978;2023-08-06T01:13:27;25.65;;;14.90;;
37131;SDS011;23035;50.032;21.978;2023-08-06T01:18:37;24.13;;;13.93;;
37131;SDS011;23035;50.032;21.978;2023-08-06T01:23:43;18.17;;;12.80;;
37131;SDS011;23035;50.032;21.978;2023-08-06T01:28:58;25.67;;;13.73;;
37131;SDS011;23035;50.032;21.978;2023-08-06T01:34:07;21.77;;;12.90;;
37131;SDS011;23035;50.032;21.978;2023-08-06T01:39:18;19.75;;;11.82;;
37131;SDS011;23035;50.032;21.978;2023-08-06T01:44:23;21.33;;;12.93;;
37131;SDS011;23035;50.032;21.978;2023-08-06T01:49:27;15.90;;;11.13;;
37131;SDS011;23035;50.032;21.978;2023-08-06T01:54:32;19.50;;;11.63;;
37131;SDS011;23035;50.032;21.978;2023-08-06T01:59:36;16.25;;;10.73;;
37131;SDS011;23035;50.032;21.978;2023-08-06T02:04:40;20.15;;;12.75;;
37131;SDS011;23035;50.032;21.978;2023-08-06T02:09:46;21.23;;;12.93;;
37131;SDS011;23035;50.032;21.978;2023-08-06T02:14:50;21.52;;;13.55;;
37131;SDS011;23035;50.032;21.978;2023-08-06T02:19:53;21.98;;;13.27;;
37131;SDS011;23035;50.032;21.978;2023-08-06T02:24:59;18.70;;;12.05;;
37131;SDS011;23035;50.032;21.978;2023-08-06T02:30:03;18.30;;;11.38;;
37131;SDS011;23035;50.032;21.978;2023-08-06T02:40:13;21.00;;;11.98;;
37131;SDS011;23035;50.032;21.978;2023-08-06T02:45:17;17.83;;;11.35;;
37131;SDS011;23035;50.032;21.978;2023-08-06T02:50:21;20.67;;;12.75;;
37131;SDS011;23035;50.032;21.978;2023-08-06T02:55:26;17.48;;;12.70;;
37131;SDS011;23035;50.032;21.978;2023-08-06T03:05:35;24.83;;;12.33;;
37131;SDS011;23035;50.032;21.978;2023-08-06T03:10:41;20.33;;;11.85;;
37131;SDS011;23035;50.032;21.978;2023-08-06T03:15:51;19.50;;;11.75;;
37131;SDS011;23035;50.032;21.978;2023-08-06T03:20:56;19.20;;;11.30;;
37131;SDS011;23035;50.032;21.978;2023-08-06T03:26:05;19.60;;;11.02;;
37131;SDS011;23035;50.032;21.978;2023-08-06T03:31:09;16.73;;;9.38;;
37131;SDS011;23035;50.032;21.978;2023-08-06T03:36:17;16.27;;;10.80;;
37131;SDS011;23035;50.032;21.978;2023-08-06T03:41:23;17.87;;;10.43;;
37131;SDS011;23035;50.032;21.978;2023-08-06T03:46:27;14.95;;;11.00;;
37131;SDS011;23035;50.032;21.978;2023-08-06T03:51:31;18.13;;;12.00;;
37131;SDS011;23035;50.032;21.978;2023-08-06T03:56:37;16.88;;;10.68;;
37131;SDS011;23035;50.032;21.978;2023-08-06T04:06:45;17.65;;;11.50;;
37131;SDS011;23035;50.032;21.978;2023-08-06T04:11:50;14.23;;;11.27;;
37131;SDS011;23035;50.032;21.978;2023-08-06T04:16:55;14.20;;;10.57;;
37131;SDS011;23035;50.032;21.978;2023-08-06T04:21:58;14.23;;;9.93;;
37131;SDS011;23035;50.032;21.978;2023-08-06T04:27:04;18.45;;;12.52;;
37131;SDS011;23035;50.032;21.978;2023-08-06T04:32:09;13.27;;;10.45;;
37131;SDS011;23035;50.032;21.978;2023-08-06T04:37:18;17.00;;;10.88;;
37131;SDS011;23035;50.032;21.978;2023-08-06T04:42:23;16.30;;;12.27;;
37131;SDS011;23035;50.032;21.978;2023-08-06T04:47:27;16.88;;;11.10;;
37131;SDS011;23035;50.032;21.978;2023-08-06T04:52:31;14.73;;;10.70;;
37131;SDS011;23035;50.032;21.978;2023-08-06T04:57:36;14.95;;;11.35;;
37131;SDS011;23035;50.032;21.978;2023-08-06T05:02:40;13.98;;;11.07;;
37131;SDS011;23035;50.032;21.978;2023-08-06T05:07:44;13.23;;;10.63;;
37131;SDS011;23035;50.032;21.978;2023-08-06T05:12:50;13.82;;;10.98;;
37131;SDS011;23035;50.032;21.978;2023-08-06T05:17:53;17.85;;;10.82;;
37131;SDS011;23035;50.032;21.978;2023-08-06T05:22:57;12.40;;;10.38;;
37131;SDS011;23035;50.032;21.978;2023-08-06T05:28:03;14.43;;;10.50;;
37131;SDS011;23035;50.032;21.978;2023-08-06T05:33:07;13.18;;;10.57;;
37131;SDS011;23035;50.032;21.978;2023-08-06T05:38:11;12.00;;;9.70;;
37131;SDS011;23035;50.032;21.978;2023-08-06T05:43:16;16.02;;;11.20;;
37131;SDS011;23035;50.032;21.978;2023-08-06T05:48:20;17.83;;;8.88;;
37131;SDS011;23035;50.032;21.978;2023-08-06T05:53:26;13.57;;;9.93;;
37131;SDS011;23035;50.032;21.978;2023-08-06T05:58:32;12.68;;;8.93;;
37131;SDS011;23035;50.032;21.978;2023-08-06T06:03:36;12.38;;;8.48;;
37131;SDS011;23035;50.032;21.978;2023-08-06T06:08:39;14.30;;;8.25;;
37131;SDS011;23035;50.032;21.978;2023-08-06T06:13:44;12.45;;;7.32;;
37131;SDS011;23035;50.032;21.978;2023-08-06T06:18:48;12.68;;;7.70;;
37131;SDS011;23035;50.032;21.978;2023-08-06T06:23:52;9.25;;;6.07;;
37131;SDS011;23035;50.032;21.978;2023-08-06T06:28:57;6.90;;;5.68;;
37131;SDS011;23035;50.032;21.978;2023-08-06T06:34:02;7.60;;;6.35;;
37131;SDS011;23035;50.032;21.978;2023-08-06T06:39:06;6.17;;;5.20;;
37131;SDS011;23035;50.032;21.978;2023-08-06T06:49:17;9.02;;;5.22;;
37131;SDS011;23035;50.032;21.978;2023-08-06T06:54:21;7.50;;;5.30;;
37131;SDS011;23035;50.032;21.978;2023-08-06T06:59:26;6.97;;;5.50;;
37131;SDS011;23035;50.032;21.978;2023-08-06T07:04:30;11.13;;;5.65;;
37131;SDS011;23035;50.032;21.978;2023-08-06T07:09:34;9.55;;;4.75;;
37131;SDS011;23035;50.032;21.978;2023-08-06T07:14:39;10.00;;;5.47;;
37131;SDS011;23035;50.032;21.978;2023-08-06T07:19:43;8.80;;;4.97;;
37131;SDS011;23035;50.032;21.978;2023-08-06T07:24:47;8.00;;;5.07;;
37131;SDS011;23035;50.032;21.978;2023-08-06T07:29:53;7.97;;;4.55;;
37131;SDS011;23035;50.032;21.978;2023-08-06T07:34:56;11.65;;;5.25;;
37131;SDS011;23035;50.032;21.978;2023-08-06T07:40:03;6.72;;;5.28;;
37131;SDS011;23035;50.032;21.978;2023-08-06T07:45:09;6.75;;;5.35;;
37131;SDS011;23035;50.032;21.978;2023-08-06T07:50:13;8.80;;;5.15;;
37131;SDS011;23035;50.032;21.978;2023-08-06T07:55:17;14.68;;;5.22;;
37131;SDS011;23035;50.032;21.978;2023-08-06T08:00:22;7.97;;;6.47;;
37131;SDS011;23035;50.032;21.978;2023-08-06T08:05:26;10.95;;;5.25;;
37131;SDS011;23035;50.032;21.978;2023-08-06T08:10:30;7.03;;;4.90;;
37131;SDS011;23035;50.032;21.978;2023-08-06T08:15:36;6.22;;;4.88;;
37131;SDS011;23035;50.032;21.978;2023-08-06T08:20:39;6.05;;;4.90;;
37131;SDS011;23035;50.032;21.978;2023-08-06T08:25:43;8.35;;;5.85;;
37131;SDS011;23035;50.032;21.978;2023-08-06T08:30:48;5.00;;;4.50;;
37131;SDS011;23035;50.032;21.978;2023-08-06T08:35:52;5.72;;;4.93;;
37131;SDS011;23035;50.032;21.978;2023-08-06T08:40:56;6.97;;;4.47;;
37131;SDS011;23035;50.032;21.978;2023-08-06T08:46:02;5.83;;;4.80;;
37131;SDS011;23035;50.032;21.978;2023-08-06T08:51:08;7.65;;;4.93;;
37131;SDS011;23035;50.032;21.978;2023-08-06T08:56:13;8.82;;;5.30;;
37131;SDS011;23035;50.032;21.978;2023-08-06T09:01:18;7.67;;;4.90;;
37131;SDS011;23035;50.032;21.978;2023-08-06T09:06:24;7.82;;;5.72;;
37131;SDS011;23035;50.032;21.978;2023-08-06T09:11:32;5.55;;;5.05;;
37131;SDS011;23035;50.032;21.978;2023-08-06T09:16:44;8.52;;;5.22;;
37131;SDS011;23035;50.032;21.978;2023-08-06T09:21:50;8.38;;;4.75;;
37131;SDS011;23035;50.032;21.978;2023-08-06T09:26:55;6.63;;;4.82;;
37131;SDS011;23035;50.032;21.978;2023-08-06T09:32:02;7.50;;;4.35;;
37131;SDS011;23035;50.032;21.978;2023-08-06T09:37:07;6.60;;;3.78;;
37131;SDS011;23035;50.032;21.978;2023-08-06T09:42:14;3.38;;;3.08;;
37131;SDS011;23035;50.032;21.978;2023-08-06T09:47:20;3.78;;;3.30;;
37131;SDS011;23035;50.032;21.978;2023-08-06T09:52:26;3.15;;;2.85;;
37131;SDS011;23035;50.032;21.978;2023-08-06T09:57:30;4.20;;;2.90;;
37131;SDS011;23035;50.032;21.978;2023-08-06T10:07:41;6.15;;;3.30;;
37131;SDS011;23035;50.032;21.978;2023-08-06T10:12:48;3.85;;;3.17;;
37131;SDS011;23035;50.032;21.978;2023-08-06T10:17:56;3.00;;;2.70;;
37131;SDS011;23035;50.032;21.978;2023-08-06T10:23:03;2.85;;;2.63;;
37131;SDS011;23035;50.032;21.978;2023-08-06T10:28:08;3.03;;;2.72;;
37131;SDS011;23035;50.032;21.978;2023-08-06T10:33:18;2.58;;;2.38;;
37131;SDS011;23035;50.032;21.978;2023-08-06T10:38:24;2.55;;;2.33;;
37131;SDS011;23035;50.032;21.978;2023-08-06T10:43:34;3.95;;;2.78;;
37131;SDS011;23035;50.032;21.978;2023-08-06T10:48:41;3.35;;;2.45;;
37131;SDS011;23035;50.032;21.978;2023-08-06T10:53:49;2.42;;;2.03;;
37131;SDS011;23035;50.032;21.978;2023-08-06T10:58:55;2.83;;;2.30;;
37131;SDS011;23035;50.032;21.978;2023-08-06T11:04:02;3.30;;;2.55;;
37131;SDS011;23035;50.032;21.978;2023-08-06T11:09:07;2.47;;;2.28;;
37131;SDS011;23035;50.032;21.978;2023-08-06T11:14:14;2.30;;;1.98;;
37131;SDS011;23035;50.032;21.978;2023-08-06T11:19:20;3.13;;;2.00;;
37131;SDS011;23035;50.032;21.978;2023-08-06T11:24:26;8.50;;;2.72;;
37131;SDS011;23035;50.032;21.978;2023-08-06T11:29:30;2.90;;;1.80;;
37131;SDS011;23035;50.032;21.978;2023-08-06T11:34:41;1.77;;;1.40;;
37131;SDS011;23035;50.032;21.978;2023-08-06T11:39:47;4.15;;;1.60;;
37131;SDS011;23035;50.032;21.978;2023-08-06T11:44:51;3.33;;;1.60;;
37131;SDS011;23035;50.032;21.978;2023-08-06T11:49:56;1.70;;;1.57;;
37131;SDS011;23035;50.032;21.978;2023-08-06T11:55:01;3.25;;;1.73;;
37131;SDS011;23035;50.032;21.978;2023-08-06T12:00:09;1.88;;;1.77;;
37131;SDS011;23035;50.032;21.978;2023-08-06T12:05:17;3.38;;;1.30;;
37131;SDS011;23035;50.032;21.978;2023-08-06T12:10:26;2.42;;;1.55;;
37131;SDS011;23035;50.032;21.978;2023-08-06T12:15:32;2.30;;;1.80;;
37131;SDS011;23035;50.032;21.978;2023-08-06T12:20:37;2.78;;;1.52;;
37131;SDS011;23035;50.032;21.978;2023-08-06T12:25:42;2.08;;;1.70;;
37131;SDS011;23035;50.032;21.978;2023-08-06T12:30:49;2.35;;;1.90;;
37131;SDS011;23035;50.032;21.978;2023-08-06T12:35:58;1.75;;;1.65;;
37131;SDS011;23035;50.032;21.978;2023-08-06T12:41:02;1.60;;;1.50;;
37131;SDS011;23035;50.032;21.978;2023-08-06T12:46:06;2.35;;;1.40;;
37131;SDS011;23035;50.032;21.978;2023-08-06T12:51:11;2.67;;;1.60;;
37131;SDS011;23035;50.032;21.978;2023-08-06T12:56:15;1.73;;;1.63;;
37131;SDS011;23035;50.032;21.978;2023-08-06T13:01:19;2.45;;;1.80;;
37131;SDS011;23035;50.032;21.978;2023-08-06T13:06:24;2.10;;;1.90;;
37131;SDS011;23035;50.032;21.978;2023-08-06T13:11:28;1.63;;;1.52;;
37131;SDS011;23035;50.032;21.978;2023-08-06T13:16:36;2.10;;;1.90;;
37131;SDS011;23035;50.032;21.978;2023-08-06T13:27:09;2.13;;;1.90;;
37131;SDS011;23035;50.032;21.978;2023-08-06T13:32:13;1.90;;;1.80;;
37131;SDS011;23035;50.032;21.978;2023-08-06T13:37:18;2.17;;;1.65;;
37131;SDS011;23035;50.032;21.978;2023-08-06T13:42:22;1.60;;;1.50;;
37131;SDS011;23035;50.032;21.978;2023-08-06T13:47:26;4.70;;;1.73;;
37131;SDS011;23035;50.032;21.978;2023-08-06T13:52:31;1.95;;;1.73;;
37131;SDS011;23035;50.032;21.978;2023-08-06T13:57:35;1.75;;;1.65;;
37131;SDS011;23035;50.032;21.978;2023-08-06T14:02:39;1.80;;;1.70;;
37131;SDS011;23035;50.032;21.978;2023-08-06T14:07:44;2.10;;;1.90;;
37131;SDS011;23035;50.032;21.978;2023-08-06T14:12:48;2.42;;;1.77;;
37131;SDS011;23035;50.032;21.978;2023-08-06T14:18:11;3.50;;;1.70;;
37131;SDS011;23035;50.032;21.978;2023-08-06T14:23:17;2.33;;;1.70;;
37131;SDS011;23035;50.032;21.978;2023-08-06T14:28:21;2.08;;;1.70;;
37131;SDS011;23035;50.032;21.978;2023-08-06T14:33:25;1.63;;;1.52;;
37131;SDS011;23035;50.032;21.978;2023-08-06T14:38:31;1.60;;;1.50;;
37131;SDS011;23035;50.032;21.978;2023-08-06T14:43:41;1.65;;;1.33;;
37131;SDS011;23035;50.032;21.978;2023-08-06T14:48:45;2.30;;;1.50;;
37131;SDS011;23035;50.032;21.978;2023-08-06T14:53:51;5.40;;;1.60;;
37131;SDS011;23035;50.032;21.978;2023-08-06T14:58:54;1.23;;;1.20;;
37131;SDS011;23035;50.032;21.978;2023-08-06T15:03:58;1.58;;;1.30;;
37131;SDS011;23035;50.032;21.978;2023-08-06T15:09:04;1.17;;;1.08;;
37131;SDS011;23035;50.032;21.978;2023-08-06T15:14:08;1.70;;;1.08;;
37131;SDS011;23035;50.032;21.978;2023-08-06T15:19:12;1.27;;;1.17;;
37131;SDS011;23035;50.032;21.978;2023-08-06T15:24:17;1.23;;;1.00;;
37131;SDS011;23035;50.032;21.978;2023-08-06T15:29:21;1.13;;;1.02;;
37131;SDS011;23035;50.032;21.978;2023-08-06T15:34:25;3.67;;;1.30;;
37131;SDS011;23035;50.032;21.978;2023-08-06T15:39:30;0.93;;;0.90;;
37131;SDS011;23035;50.032;21.978;2023-08-06T15:44:34;0.88;;;0.88;;
37131;SDS011;23035;50.032;21.978;2023-08-06T15:49:38;1.02;;;0.95;;
37131;SDS011;23035;50.032;21.978;2023-08-06T15:54:43;1.55;;;1.30;;
37131;SDS011;23035;50.032;21.978;2023-08-06T15:59:47;1.55;;;1.10;;
37131;SDS011;23035;50.032;21.978;2023-08-06T16:04:51;1.25;;;1.15;;
37131;SDS011;23035;50.032;21.978;2023-08-06T16:09:57;1.23;;;1.13;;
37131;SDS011;23035;50.032;21.978;2023-08-06T16:15:01;1.77;;;1.20;;
37131;SDS011;23035;50.032;21.978;2023-08-06T16:20:05;1.10;;;1.07;;
37131;SDS011;23035;50.032;21.978;2023-08-06T16:25:12;2.88;;;1.30;;
37131;SDS011;23035;50.032;21.978;2023-08-06T16:30:19;0.95;;;0.95;;
37131;SDS011;23035;50.032;21.978;2023-08-06T16:35:23;1.05;;;0.95;;
37131;SDS011;23035;50.032;21.978;2023-08-06T16:40:30;1.40;;;1.30;;
37131;SDS011;23035;50.032;21.978;2023-08-06T16:45:35;2.90;;;2.70;;
37131;SDS011;23035;50.032;21.978;2023-08-06T16:50:40;3.40;;;3.20;;
37131;SDS011;23035;50.032;21.978;2023-08-06T16:55:46;3.65;;;2.80;;
37131;SDS011;23035;50.032;21.978;2023-08-06T17:00:52;5.63;;;5.30;;
37131;SDS011;23035;50.032;21.978;2023-08-06T17:06:04;7.70;;;4.38;;
37131;SDS011;23035;50.032;21.978;2023-08-06T17:11:13;3.10;;;2.90;;
37131;SDS011;23035;50.032;21.978;2023-08-06T17:16:25;4.63;;;2.83;;
37131;SDS011;23035;50.032;21.978;2023-08-06T17:21:32;3.35;;;3.00;;
37131;SDS011;23035;50.032;21.978;2023-08-06T17:26:40;4.75;;;2.75;;
37131;SDS011;23035;50.032;21.978;2023-08-06T17:31:44;4.38;;;2.80;;
37131;SDS011;23035;50.032;21.978;2023-08-06T17:36:51;3.38;;;3.10;;
37131;SDS011;23035;50.032;21.978;2023-08-06T17:41:57;2.70;;;2.50;;
37131;SDS011;23035;50.032;21.978;2023-08-06T17:47:03;3.75;;;2.70;;
37131;SDS011;23035;50.032;21.978;2023-08-06T17:52:10;2.70;;;2.40;;
37131;SDS011;23035;50.032;21.978;2023-08-06T17:57:18;2.70;;;2.50;;
37131;SDS011;23035;50.032;21.978;2023-08-06T18:02:23;4.30;;;2.25;;
37131;SDS011;23035;50.032;21.978;2023-08-06T18:07:29;2.60;;;2.40;;
37131;SDS011;23035;50.032;21.978;2023-08-06T18:12:35;3.30;;;2.50;;
37131;SDS011;23035;50.032;21.978;2023-08-06T18:17:44;2.92;;;2.22;;
37131;SDS011;23035;50.032;21.978;2023-08-06T18:22:49;3.20;;;2.70;;
37131;SDS011;23035;50.032;21.978;2023-08-06T18:28:07;3.00;;;2.80;;
37131;SDS011;23035;50.032;21.978;2023-08-06T18:33:11;3.20;;;2.70;;
37131;SDS011;23035;50.032;21.978;2023-08-06T18:38:15;4.22;;;3.25;;
37131;SDS011;23035;50.032;21.978;2023-08-06T18:43:20;3.15;;;2.85;;
37131;SDS011;23035;50.032;21.978;2023-08-06T18:48:25;2.70;;;2.50;;
37131;SDS011;23035;50.032;21.978;2023-08-06T18:53:35;2.35;;;2.10;;
37131;SDS011;23035;50.032;21.978;2023-08-06T18:58:40;2.38;;;2.10;;
37131;SDS011;23035;50.032;21.978;2023-08-06T19:03:45;2.22;;;2.03;;
37131;SDS011;23035;50.032;21.978;2023-08-06T19:08:50;3.17;;;2.33;;
37131;SDS011;23035;50.032;21.978;2023-08-06T19:13:56;4.10;;;2.08;;
37131;SDS011;23035;50.032;21.978;2023-08-06T19:19:00;4.28;;;1.92;;
37131;SDS011;23035;50.032;21.978;2023-08-06T19:24:04;2.92;;;1.95;;
37131;SDS011;23035;50.032;21.978;2023-08-06T19:29:09;4.97;;;1.90;;
37131;SDS011;23035;50.032;21.978;2023-08-06T19:34:13;3.75;;;2.17;;
37131;SDS011;23035;50.032;21.978;2023-08-06T19:39:17;5.38;;;1.67;;
37131;SDS011;23035;50.032;21.978;2023-08-06T19:44:23;3.13;;;1.63;;
37131;SDS011;23035;50.032;21.978;2023-08-06T19:49:28;2.63;;;1.33;;
37131;SDS011;23035;50.032;21.978;2023-08-06T19:54:31;1.60;;;1.50;;
37131;SDS011;23035;50.032;21.978;2023-08-06T19:59:37;2.58;;;1.60;;
37131;SDS011;23035;50.032;21.978;2023-08-06T20:04:41;3.40;;;1.90;;
37131;SDS011;23035;50.032;21.978;2023-08-06T20:09:45;4.90;;;1.90;;
37131;SDS011;23035;50.032;21.978;2023-08-06T20:14:51;1.85;;;1.70;;
37131;SDS011;23035;50.032;21.978;2023-08-06T20:19:55;8.63;;;1.65;;
37131;SDS011;23035;50.032;21.978;2023-08-06T20:24:59;3.40;;;1.77;;
37131;SDS011;23035;50.032;21.978;2023-08-06T20:30:05;2.95;;;1.98;;
37131;SDS011;23035;50.032;21.978;2023-08-06T20:35:09;5.18;;;2.22;;
37131;SDS011;23035;50.032;21.978;2023-08-06T20:40:13;2.05;;;1.60;;
37131;SDS011;23035;50.032;21.978;2023-08-06T20:45:19;3.30;;;1.75;;
37131;SDS011;23035;50.032;21.978;2023-08-06T20:50:23;1.67;;;1.58;;
37131;SDS011;23035;50.032;21.978;2023-08-06T20:55:27;2.85;;;1.75;;
37131;SDS011;23035;50.032;21.978;2023-08-06T21:00:33;1.95;;;1.50;;
37131;SDS011;23035;50.032;21.978;2023-08-06T21:05:36;2.58;;;1.50;;
37131;SDS011;23035;50.032;21.978;2023-08-06T21:10:40;5.10;;;2.15;;
37131;SDS011;23035;50.032;21.978;2023-08-06T21:15:46;2.85;;;1.60;;
37131;SDS011;23035;50.032;21.978;2023-08-06T21:20:53;2.40;;;1.50;;
37131;SDS011;23035;50.032;21.978;2023-08-06T21:25:57;5.88;;;1.65;;
37131;SDS011;23035;50.032;21.978;2023-08-06T21:31:03;1.98;;;1.50;;
37131;SDS011;23035;50.032;21.978;2023-08-06T21:36:09;1.73;;;1.60;;
37131;SDS011;23035;50.032;21.978;2023-08-06T21:41:14;5.10;;;1.60;;
37131;SDS011;23035;50.032;21.978;2023-08-06T21:46:20;5.25;;;1.80;;
37131;SDS011;23035;50.032;21.978;2023-08-06T21:51:24;1.80;;;1.27;;
37131;SDS011;23035;50.032;21.978;2023-08-06T21:56:28;1.98;;;1.40;;
37131;SDS011;23035;50.032;21.978;2023-08-06T22:01:34;3.15;;;1.35;;
37131;SDS011;23035;50.032;21.978;2023-08-06T22:06:38;1.30;;;1.20;;
37131;SDS011;23035;50.032;21.978;2023-08-06T22:11:41;1.38;;;1.27;;
37131;SDS011;23035;50.032;21.978;2023-08-06T22:16:47;1.63;;;1.20;;
37131;SDS011;23035;50.032;21.978;2023-08-06T22:21:51;2.33;;;1.30;;
37131;SDS011;23035;50.032;21.978;2023-08-06T22:26:55;2.08;;;1.40;;
37131;SDS011;23035;50.032;21.978;2023-08-06T22:32:01;3.22;;;1.40;;
37131;SDS011;23035;50.032;21.978;2023-08-06T22:37:05;1.75;;;1.30;;
37131;SDS011;23035;50.032;21.978;2023-08-06T22:42:09;2.60;;;1.48;;
37131;SDS011;23035;50.032;21.978;2023-08-06T22:47:14;2.35;;;1.42;;
37131;SDS011;23035;50.032;21.978;2023-08-06T22:52:18;2.50;;;1.50;;
37131;SDS011;23035;50.032;21.978;2023-08-06T22:57:22;2.05;;;1.10;;
37131;SDS011;23035;50.032;21.978;2023-08-06T23:02:27;2.85;;;1.30;;
37131;SDS011;23035;50.032;21.978;2023-08-06T23:07:32;1.98;;;1.42;;
37131;SDS011;23035;50.032;21.978;2023-08-06T23:12:35;4.72;;;1.50;;
37131;SDS011;23035;50.032;21.978;2023-08-06T23:17:41;3.20;;;1.40;;
37131;SDS011;23035;50.032;21.978;2023-08-06T23:22:45;1.60;;;1.45;;
37131;SDS011;23035;50.032;21.978;2023-08-06T23:27:48;2.67;;;1.40;;
37131;SDS011;23035;50.032;21.978;2023-08-06T23:32:54;2.63;;;1.23;;
37131;SDS011;23035;50.032;21.978;2023-08-06T23:37:58;2.97;;;1.30;;
37131;SDS011;23035;50.032;21.978;2023-08-06T23:43:02;2.65;;;1.48;;
37131;SDS011;23035;50.032;21.978;2023-08-06T23:48:07;2.75;;;1.48;;
37131;SDS011;23035;50.032;21.978;2023-08-06T23:53:11;2.78;;;1.45;;
37131;SDS011;23035;50.032;21.978;2023-08-06T23:58:15;1.95;;;1.50;;
